sensor_id;sensor_type;location;lat;lon;timestamp;P1;durP1;ratioP1;P2;durP2;ratioP2
19923;SDS011;10124;53.068;18.224;2023-03-26T00:01:29;11.70;;;6.47;;
19923;SDS011;10124;53.068;18.224;2023-03-26T00:04:04;10.50;;;6.57;;
19923;SDS011;10124;53.068;18.224;2023-03-26T00:06:36;6.97;;;5.77;;
19923;SDS011;10124;53.068;18.224;2023-03-26T00:09:07;13.53;;;7.43;;
19923;SDS011;10124;53.068;18.224;2023-03-26T00:11:35;8.53;;;6.57;;
19923;SDS011;10124;53.068;18.224;2023-03-26T00:14:03;11.30;;;6.60;;
19923;SDS011;10124;53.068;18.224;2023-03-26T00:16:31;9.07;;;6.17;;
19923;SDS011;10124;53.068;18.224;2023-03-26T00:19:00;8.17;;;6.53;;
19923;SDS011;10124;53.068;18.224;2023-03-26T00:21:28;9.87;;;6.13;;
19923;SDS011;10124;53.068;18.224;2023-03-26T00:24:01;9.30;;;5.93;;
19923;SDS011;10124;53.068;18.224;2023-03-26T00:26:35;9.03;;;6.40;;
19923;SDS011;10124;53.068;18.224;2023-03-26T00:29:04;7.90;;;6.07;;
19923;SDS011;10124;53.068;18.224;2023-03-26T00:31:32;10.80;;;6.77;;
19923;SDS011;10124;53.068;18.224;2023-03-26T00:34:01;8.67;;;6.20;;
19923;SDS011;10124;53.068;18.224;2023-03-26T00:36:31;10.30;;;7.07;;
19923;SDS011;10124;53.068;18.224;2023-03-26T00:39:02;9.70;;;6.77;;
19923;SDS011;10124;53.068;18.224;2023-03-26T00:41:32;8.93;;;6.70;;
19923;SDS011;10124;53.068;18.224;2023-03-26T00:44:03;10.43;;;6.17;;
19923;SDS011;10124;53.068;18.224;2023-03-26T00:46:31;10.30;;;6.20;;
19923;SDS011;10124;53.068;18.224;2023-03-26T00:48:59;14.67;;;6.80;;
19923;SDS011;10124;53.068;18.224;2023-03-26T00:51:29;13.77;;;7.20;;
19923;SDS011;10124;53.068;18.224;2023-03-26T00:53:59;10.93;;;7.57;;
19923;SDS011;10124;53.068;18.224;2023-03-26T00:56:27;10.43;;;7.50;;
19923;SDS011;10124;53.068;18.224;2023-03-26T00:58:55;10.73;;;7.00;;
19923;SDS011;10124;53.068;18.224;2023-03-26T01:01:24;7.57;;;6.50;;
19923;SDS011;10124;53.068;18.224;2023-03-26T01:03:55;9.50;;;6.67;;
19923;SDS011;10124;53.068;18.224;2023-03-26T01:06:35;7.03;;;5.73;;
19923;SDS011;10124;53.068;18.224;2023-03-26T01:09:13;7.80;;;6.63;;
19923;SDS011;10124;53.068;18.224;2023-03-26T01:11:45;12.03;;;5.73;;
19923;SDS011;10124;53.068;18.224;2023-03-26T01:14:16;8.80;;;6.23;;
19923;SDS011;10124;53.068;18.224;2023-03-26T01:16:47;8.83;;;6.47;;
19923;SDS011;10124;53.068;18.224;2023-03-26T01:19:22;11.23;;;6.23;;
19923;SDS011;10124;53.068;18.224;2023-03-26T01:21:51;9.53;;;6.63;;
19923;SDS011;10124;53.068;18.224;2023-03-26T01:24:19;8.17;;;6.47;;
19923;SDS011;10124;53.068;18.224;2023-03-26T01:26:59;11.13;;;6.50;;
19923;SDS011;10124;53.068;18.224;2023-03-26T01:37:27;11.40;;;6.23;;
19923;SDS011;10124;53.068;18.224;2023-03-26T01:42:57;10.30;;;6.43;;
19923;SDS011;10124;53.068;18.224;2023-03-26T01:45:37;9.57;;;6.53;;
19923;SDS011;10124;53.068;18.224;2023-03-26T01:48:07;11.50;;;6.07;;
19923;SDS011;10124;53.068;18.224;2023-03-26T01:50:35;9.27;;;5.67;;
19923;SDS011;10124;53.068;18.224;2023-03-26T01:53:02;11.07;;;6.13;;
19923;SDS011;10124;53.068;18.224;2023-03-26T01:55:34;9.30;;;6.30;;
19923;SDS011;10124;53.068;18.224;2023-03-26T02:01:03;8.80;;;6.13;;
19923;SDS011;10124;53.068;18.224;2023-03-26T02:04:03;8.47;;;6.30;;
19923;SDS011;10124;53.068;18.224;2023-03-26T02:06:45;7.67;;;5.40;;
19923;SDS011;10124;53.068;18.224;2023-03-26T02:09:22;7.33;;;5.67;;
19923;SDS011;10124;53.068;18.224;2023-03-26T02:11:54;10.60;;;5.47;;
19923;SDS011;10124;53.068;18.224;2023-03-26T02:14:23;7.80;;;4.63;;
19923;SDS011;10124;53.068;18.224;2023-03-26T02:16:51;6.03;;;4.70;;
19923;SDS011;10124;53.068;18.224;2023-03-26T02:19:19;8.07;;;4.47;;
19923;SDS011;10124;53.068;18.224;2023-03-26T02:21:50;5.87;;;4.53;;
19923;SDS011;10124;53.068;18.224;2023-03-26T02:24:19;10.73;;;4.50;;
19923;SDS011;10124;53.068;18.224;2023-03-26T02:26:52;5.43;;;3.63;;
19923;SDS011;10124;53.068;18.224;2023-03-26T02:29:19;4.30;;;2.83;;
19923;SDS011;10124;53.068;18.224;2023-03-26T02:31:49;3.33;;;2.57;;
19923;SDS011;10124;53.068;18.224;2023-03-26T02:34:17;5.37;;;2.63;;
19923;SDS011;10124;53.068;18.224;2023-03-26T02:36:49;4.40;;;2.37;;
19923;SDS011;10124;53.068;18.224;2023-03-26T02:39:17;4.97;;;2.63;;
19923;SDS011;10124;53.068;18.224;2023-03-26T02:42:06;5.57;;;2.57;;
19923;SDS011;10124;53.068;18.224;2023-03-26T02:44:40;3.50;;;2.60;;
19923;SDS011;10124;53.068;18.224;2023-03-26T02:47:17;9.60;;;2.70;;
19923;SDS011;10124;53.068;18.224;2023-03-26T02:49:51;3.27;;;2.80;;
19923;SDS011;10124;53.068;18.224;2023-03-26T02:52:45;7.13;;;2.73;;
19923;SDS011;10124;53.068;18.224;2023-03-26T02:55:16;4.47;;;2.90;;
19923;SDS011;10124;53.068;18.224;2023-03-26T02:57:45;4.57;;;2.87;;
19923;SDS011;10124;53.068;18.224;2023-03-26T03:00:16;6.30;;;3.20;;
19923;SDS011;10124;53.068;18.224;2023-03-26T03:03:07;5.57;;;3.37;;
19923;SDS011;10124;53.068;18.224;2023-03-26T03:05:54;4.13;;;3.00;;
19923;SDS011;10124;53.068;18.224;2023-03-26T03:08:30;5.60;;;3.43;;
19923;SDS011;10124;53.068;18.224;2023-03-26T03:11:14;5.27;;;3.13;;
19923;SDS011;10124;53.068;18.224;2023-03-26T03:13:47;7.00;;;3.53;;
19923;SDS011;10124;53.068;18.224;2023-03-26T03:16:24;5.07;;;3.27;;
19923;SDS011;10124;53.068;18.224;2023-03-26T03:18:52;6.23;;;3.37;;
19923;SDS011;10124;53.068;18.224;2023-03-26T03:21:27;7.07;;;4.10;;
19923;SDS011;10124;53.068;18.224;2023-03-26T03:23:56;3.90;;;3.40;;
19923;SDS011;10124;53.068;18.224;2023-03-26T03:26:29;5.57;;;3.50;;
19923;SDS011;10124;53.068;18.224;2023-03-26T03:29:07;5.50;;;4.10;;
19923;SDS011;10124;53.068;18.224;2023-03-26T03:31:35;8.50;;;3.83;;
19923;SDS011;10124;53.068;18.224;2023-03-26T03:34:08;9.23;;;3.60;;
19923;SDS011;10124;53.068;18.224;2023-03-26T03:36:43;6.70;;;3.37;;
19923;SDS011;10124;53.068;18.224;2023-03-26T03:39:30;5.67;;;3.53;;
19923;SDS011;10124;53.068;18.224;2023-03-26T03:41:58;6.63;;;3.77;;
19923;SDS011;10124;53.068;18.224;2023-03-26T03:44:27;5.90;;;3.50;;
19923;SDS011;10124;53.068;18.224;2023-03-26T03:46:55;6.17;;;3.60;;
19923;SDS011;10124;53.068;18.224;2023-03-26T03:49:23;7.13;;;3.37;;
19923;SDS011;10124;53.068;18.224;2023-03-26T03:51:51;4.27;;;3.33;;
19923;SDS011;10124;53.068;18.224;2023-03-26T03:54:32;4.23;;;3.37;;
19923;SDS011;10124;53.068;18.224;2023-03-26T03:57:08;5.67;;;3.30;;
19923;SDS011;10124;53.068;18.224;2023-03-26T03:59:35;7.10;;;3.73;;
19923;SDS011;10124;53.068;18.224;2023-03-26T04:02:13;4.17;;;3.40;;
19923;SDS011;10124;53.068;18.224;2023-03-26T04:04:55;4.20;;;3.10;;
19923;SDS011;10124;53.068;18.224;2023-03-26T04:07:27;3.80;;;3.10;;
19923;SDS011;10124;53.068;18.224;2023-03-26T04:10:05;5.17;;;3.87;;
19923;SDS011;10124;53.068;18.224;2023-03-26T04:12:52;4.73;;;3.60;;
19923;SDS011;10124;53.068;18.224;2023-03-26T04:15:40;5.87;;;3.93;;
19923;SDS011;10124;53.068;18.224;2023-03-26T04:18:08;4.90;;;3.20;;
19923;SDS011;10124;53.068;18.224;2023-03-26T04:20:42;6.50;;;4.40;;
19923;SDS011;10124;53.068;18.224;2023-03-26T04:23:24;5.70;;;4.33;;
19923;SDS011;10124;53.068;18.224;2023-03-26T04:26:14;8.27;;;4.70;;
19923;SDS011;10124;53.068;18.224;2023-03-26T04:29:03;7.20;;;3.83;;
19923;SDS011;10124;53.068;18.224;2023-03-26T04:31:38;9.50;;;4.67;;
19923;SDS011;10124;53.068;18.224;2023-03-26T04:34:21;6.43;;;4.40;;
19923;SDS011;10124;53.068;18.224;2023-03-26T04:37:00;7.30;;;4.40;;
19923;SDS011;10124;53.068;18.224;2023-03-26T04:39:32;4.47;;;4.03;;
19923;SDS011;10124;53.068;18.224;2023-03-26T04:42:25;5.40;;;3.93;;
19923;SDS011;10124;53.068;18.224;2023-03-26T04:45:06;7.90;;;4.60;;
19923;SDS011;10124;53.068;18.224;2023-03-26T04:47:35;7.67;;;4.13;;
19923;SDS011;10124;53.068;18.224;2023-03-26T04:50:06;9.37;;;4.77;;
19923;SDS011;10124;53.068;18.224;2023-03-26T04:52:36;6.50;;;4.33;;
19923;SDS011;10124;53.068;18.224;2023-03-26T04:55:30;6.97;;;4.77;;
19923;SDS011;10124;53.068;18.224;2023-03-26T04:58:13;9.23;;;5.90;;
19923;SDS011;10124;53.068;18.224;2023-03-26T05:01:00;13.13;;;5.83;;
19923;SDS011;10124;53.068;18.224;2023-03-26T05:03:37;10.50;;;6.33;;
19923;SDS011;10124;53.068;18.224;2023-03-26T05:06:10;8.40;;;6.37;;
19923;SDS011;10124;53.068;18.224;2023-03-26T05:08:40;7.97;;;6.10;;
19923;SDS011;10124;53.068;18.224;2023-03-26T05:11:16;10.43;;;5.70;;
19923;SDS011;10124;53.068;18.224;2023-03-26T05:13:44;11.97;;;6.30;;
19923;SDS011;10124;53.068;18.224;2023-03-26T05:16:13;9.67;;;7.00;;
19923;SDS011;10124;53.068;18.224;2023-03-26T05:18:47;8.30;;;6.30;;
19923;SDS011;10124;53.068;18.224;2023-03-26T05:21:15;11.50;;;7.40;;
19923;SDS011;10124;53.068;18.224;2023-03-26T05:23:44;7.33;;;5.97;;
19923;SDS011;10124;53.068;18.224;2023-03-26T05:26:16;9.97;;;6.37;;
19923;SDS011;10124;53.068;18.224;2023-03-26T05:28:45;9.70;;;7.37;;
19923;SDS011;10124;53.068;18.224;2023-03-26T05:31:24;9.10;;;7.70;;
19923;SDS011;10124;53.068;18.224;2023-03-26T05:34:00;10.87;;;7.30;;
19923;SDS011;10124;53.068;18.224;2023-03-26T05:36:27;10.00;;;6.80;;
19923;SDS011;10124;53.068;18.224;2023-03-26T05:39:15;10.60;;;7.43;;
19923;SDS011;10124;53.068;18.224;2023-03-26T05:42:04;9.47;;;8.03;;
19923;SDS011;10124;53.068;18.224;2023-03-26T05:45:13;9.93;;;7.00;;
19923;SDS011;10124;53.068;18.224;2023-03-26T05:47:42;11.33;;;7.60;;
19923;SDS011;10124;53.068;18.224;2023-03-26T05:50:10;10.53;;;8.23;;
19923;SDS011;10124;53.068;18.224;2023-03-26T05:52:40;8.93;;;8.03;;
19923;SDS011;10124;53.068;18.224;2023-03-26T05:55:28;10.20;;;8.00;;
19923;SDS011;10124;53.068;18.224;2023-03-26T05:58:17;10.43;;;7.70;;
19923;SDS011;10124;53.068;18.224;2023-03-26T06:01:05;9.30;;;7.83;;
19923;SDS011;10124;53.068;18.224;2023-03-26T06:04:12;9.97;;;7.67;;
19923;SDS011;10124;53.068;18.224;2023-03-26T06:06:56;10.53;;;7.23;;
19923;SDS011;10124;53.068;18.224;2023-03-26T06:09:24;10.73;;;7.80;;
19923;SDS011;10124;53.068;18.224;2023-03-26T06:11:52;10.03;;;7.33;;
19923;SDS011;10124;53.068;18.224;2023-03-26T06:14:19;10.10;;;7.27;;
19923;SDS011;10124;53.068;18.224;2023-03-26T06:17:05;8.97;;;7.43;;
19923;SDS011;10124;53.068;18.224;2023-03-26T06:19:53;7.93;;;6.47;;
19923;SDS011;10124;53.068;18.224;2023-03-26T06:22:30;9.83;;;6.47;;
19923;SDS011;10124;53.068;18.224;2023-03-26T06:25:15;8.23;;;6.33;;
19923;SDS011;10124;53.068;18.224;2023-03-26T06:27:52;8.67;;;6.93;;
19923;SDS011;10124;53.068;18.224;2023-03-26T06:30:42;10.27;;;7.00;;
19923;SDS011;10124;53.068;18.224;2023-03-26T06:33:42;11.83;;;7.20;;
19923;SDS011;10124;53.068;18.224;2023-03-26T06:36:12;8.33;;;6.40;;
19923;SDS011;10124;53.068;18.224;2023-03-26T06:38:39;8.20;;;6.53;;
19923;SDS011;10124;53.068;18.224;2023-03-26T06:41:08;8.23;;;6.43;;
19923;SDS011;10124;53.068;18.224;2023-03-26T06:43:57;10.60;;;6.83;;
19923;SDS011;10124;53.068;18.224;2023-03-26T06:46:44;8.97;;;7.13;;
19923;SDS011;10124;53.068;18.224;2023-03-26T06:49:45;9.53;;;6.97;;
19923;SDS011;10124;53.068;18.224;2023-03-26T06:52:27;7.77;;;6.97;;
19923;SDS011;10124;53.068;18.224;2023-03-26T06:55:14;8.17;;;6.90;;
19923;SDS011;10124;53.068;18.224;2023-03-26T06:58:02;10.73;;;6.90;;
19923;SDS011;10124;53.068;18.224;2023-03-26T07:00:51;20.60;;;14.40;;
19923;SDS011;10124;53.068;18.224;2023-03-26T07:03:38;7.73;;;6.93;;
19923;SDS011;10124;53.068;18.224;2023-03-26T07:06:25;6.80;;;6.10;;
19923;SDS011;10124;53.068;18.224;2023-03-26T07:09:11;9.80;;;8.80;;
19923;SDS011;10124;53.068;18.224;2023-03-26T07:11:59;27.00;;;17.80;;
19923;SDS011;10124;53.068;18.224;2023-03-26T07:14:42;15.83;;;8.83;;
19923;SDS011;10124;53.068;18.224;2023-03-26T07:17:29;7.90;;;6.00;;
19923;SDS011;10124;53.068;18.224;2023-03-26T07:20:05;14.57;;;10.73;;
19923;SDS011;10124;53.068;18.224;2023-03-26T07:22:34;20.57;;;14.50;;
19923;SDS011;10124;53.068;18.224;2023-03-26T07:25:05;14.83;;;11.57;;
19923;SDS011;10124;53.068;18.224;2023-03-26T07:27:45;12.43;;;9.10;;
19923;SDS011;10124;53.068;18.224;2023-03-26T07:34:45;4.23;;;2.93;;
19923;SDS011;10124;53.068;18.224;2023-03-26T07:40:34;1.70;;;1.50;;
19923;SDS011;10124;53.068;18.224;2023-03-26T07:46:45;2.13;;;1.20;;
19923;SDS011;10124;53.068;18.224;2023-03-26T07:49:41;3.20;;;1.10;;
19923;SDS011;10124;53.068;18.224;2023-03-26T07:52:23;2.47;;;1.30;;
19923;SDS011;10124;53.068;18.224;2023-03-26T07:55:06;2.57;;;1.40;;
19923;SDS011;10124;53.068;18.224;2023-03-26T08:00:45;2.20;;;1.47;;
19923;SDS011;10124;53.068;18.224;2023-03-26T08:03:47;2.90;;;2.43;;
19923;SDS011;10124;53.068;18.224;2023-03-26T08:07:17;4.90;;;2.50;;
19923;SDS011;10124;53.068;18.224;2023-03-26T08:18:00;3.40;;;2.30;;
19923;SDS011;10124;53.068;18.224;2023-03-26T08:31:54;1.53;;;1.10;;
19923;SDS011;10124;53.068;18.224;2023-03-26T08:34:23;1.87;;;1.60;;
19923;SDS011;10124;53.068;18.224;2023-03-26T08:36:51;2.17;;;1.43;;
19923;SDS011;10124;53.068;18.224;2023-03-26T08:39:20;2.50;;;1.80;;
19923;SDS011;10124;53.068;18.224;2023-03-26T09:10:56;5.00;;;2.97;;
19923;SDS011;10124;53.068;18.224;2023-03-26T09:22:06;4.17;;;2.10;;
19923;SDS011;10124;53.068;18.224;2023-03-26T09:25:11;2.50;;;1.80;;
19923;SDS011;10124;53.068;18.224;2023-03-26T09:33:39;3.57;;;2.23;;
19923;SDS011;10124;53.068;18.224;2023-03-26T09:36:19;4.80;;;2.30;;
19923;SDS011;10124;53.068;18.224;2023-03-26T09:38:51;4.53;;;2.53;;
19923;SDS011;10124;53.068;18.224;2023-03-26T09:50:21;4.87;;;2.77;;
19923;SDS011;10124;53.068;18.224;2023-03-26T09:55:52;3.60;;;2.70;;
19923;SDS011;10124;53.068;18.224;2023-03-26T10:01:16;2.63;;;1.80;;
19923;SDS011;10124;53.068;18.224;2023-03-26T10:10:00;2.50;;;1.40;;
19923;SDS011;10124;53.068;18.224;2023-03-26T10:12:38;2.47;;;1.10;;
19923;SDS011;10124;53.068;18.224;2023-03-26T10:31:42;3.57;;;2.37;;
19923;SDS011;10124;53.068;18.224;2023-03-26T10:45:43;3.03;;;1.80;;
19923;SDS011;10124;53.068;18.224;2023-03-26T10:51:19;2.35;;;1.50;;
19923;SDS011;10124;53.068;18.224;2023-03-26T10:56:32;6.70;;;1.20;;
19923;SDS011;10124;53.068;18.224;2023-03-26T10:59:05;1.88;;;1.30;;
19923;SDS011;10124;53.068;18.224;2023-03-26T11:04:44;7.60;;;3.95;;
19923;SDS011;10124;53.068;18.224;2023-03-26T11:07:44;7.70;;;3.75;;
19923;SDS011;10124;53.068;18.224;2023-03-26T11:10:34;3.30;;;1.33;;
19923;SDS011;10124;53.068;18.224;2023-03-26T11:13:28;3.33;;;1.60;;
19923;SDS011;10124;53.068;18.224;2023-03-26T11:16:02;3.20;;;1.60;;
19923;SDS011;10124;53.068;18.224;2023-03-26T11:19:03;4.33;;;2.47;;
19923;SDS011;10124;53.068;18.224;2023-03-26T11:21:47;7.70;;;1.80;;
19923;SDS011;10124;53.068;18.224;2023-03-26T11:27:03;3.22;;;1.67;;
19923;SDS011;10124;53.068;18.224;2023-03-26T11:32:37;2.50;;;1.10;;
19923;SDS011;10124;53.068;18.224;2023-03-26T11:38:18;2.50;;;1.17;;
19923;SDS011;10124;53.068;18.224;2023-03-26T11:40:51;5.93;;;1.30;;
19923;SDS011;10124;53.068;18.224;2023-03-26T11:43:34;3.25;;;1.10;;
19923;SDS011;10124;53.068;18.224;2023-03-26T11:46:03;2.30;;;1.25;;
19923;SDS011;10124;53.068;18.224;2023-03-26T11:48:44;2.33;;;1.20;;
19923;SDS011;10124;53.068;18.224;2023-03-26T11:51:25;4.20;;;1.95;;
19923;SDS011;10124;53.068;18.224;2023-03-26T11:53:59;3.25;;;1.30;;
19923;SDS011;10124;53.068;18.224;2023-03-26T11:59:43;2.97;;;1.45;;
19923;SDS011;10124;53.068;18.224;2023-03-26T12:02:26;2.85;;;2.05;;
19923;SDS011;10124;53.068;18.224;2023-03-26T12:05:13;3.60;;;2.20;;
19923;SDS011;10124;53.068;18.224;2023-03-26T12:07:54;6.97;;;2.10;;
19923;SDS011;10124;53.068;18.224;2023-03-26T12:12:53;4.87;;;2.63;;
19923;SDS011;10124;53.068;18.224;2023-03-26T12:15:22;3.30;;;2.03;;
19923;SDS011;10124;53.068;18.224;2023-03-26T12:17:53;5.40;;;2.40;;
19923;SDS011;10124;53.068;18.224;2023-03-26T12:22:51;6.68;;;3.38;;
19923;SDS011;10124;53.068;18.224;2023-03-26T12:25:32;5.35;;;2.55;;
19923;SDS011;10124;53.068;18.224;2023-03-26T12:30:49;8.30;;;4.65;;
19923;SDS011;10124;53.068;18.224;2023-03-26T12:33:25;31.15;;;14.90;;
19923;SDS011;10124;53.068;18.224;2023-03-26T12:35:55;17.53;;;7.17;;
19923;SDS011;10124;53.068;18.224;2023-03-26T12:41:06;7.83;;;5.20;;
19923;SDS011;10124;53.068;18.224;2023-03-26T12:44:20;6.37;;;3.37;;
19923;SDS011;10124;53.068;18.224;2023-03-26T12:47:19;6.97;;;3.60;;
19923;SDS011;10124;53.068;18.224;2023-03-26T12:50:17;5.87;;;3.27;;
19923;SDS011;10124;53.068;18.224;2023-03-26T12:58:48;7.27;;;3.10;;
19923;SDS011;10124;53.068;18.224;2023-03-26T13:01:33;5.93;;;2.53;;
19923;SDS011;10124;53.068;18.224;2023-03-26T13:10:02;3.70;;;2.97;;
19923;SDS011;10124;53.068;18.224;2023-03-26T13:15:49;3.25;;;1.33;;
19923;SDS011;10124;53.068;18.224;2023-03-26T13:18:40;5.18;;;3.28;;
19923;SDS011;10124;53.068;18.224;2023-03-26T13:21:59;2.95;;;1.02;;
19923;SDS011;10124;53.068;18.224;2023-03-26T13:26:58;2.13;;;1.30;;
19923;SDS011;10124;53.068;18.224;2023-03-26T13:37:50;2.88;;;1.30;;
19923;SDS011;10124;53.068;18.224;2023-03-26T13:40:23;5.97;;;3.95;;
19923;SDS011;10124;53.068;18.224;2023-03-26T13:48:25;11.43;;;6.82;;
19923;SDS011;10124;53.068;18.224;2023-03-26T13:50:58;6.07;;;2.80;;
19923;SDS011;10124;53.068;18.224;2023-03-26T13:53:47;6.32;;;3.88;;
19923;SDS011;10124;53.068;18.224;2023-03-26T13:56:19;12.77;;;7.70;;
19923;SDS011;10124;53.068;18.224;2023-03-26T13:59:00;3.35;;;2.03;;
19923;SDS011;10124;53.068;18.224;2023-03-26T14:01:35;12.73;;;6.85;;
19923;SDS011;10124;53.068;18.224;2023-03-26T14:04:14;20.90;;;11.52;;
19923;SDS011;10124;53.068;18.224;2023-03-26T14:07:11;13.18;;;7.70;;
19923;SDS011;10124;53.068;18.224;2023-03-26T14:09:59;13.43;;;5.90;;
19923;SDS011;10124;53.068;18.224;2023-03-26T14:15:22;4.90;;;2.00;;
19923;SDS011;10124;53.068;18.224;2023-03-26T14:18:06;14.70;;;6.93;;
19923;SDS011;10124;53.068;18.224;2023-03-26T14:21:00;18.57;;;9.00;;
19923;SDS011;10124;53.068;18.224;2023-03-26T14:23:37;11.27;;;6.70;;
19923;SDS011;10124;53.068;18.224;2023-03-26T14:32:02;5.30;;;3.00;;
19923;SDS011;10124;53.068;18.224;2023-03-26T14:40:54;5.18;;;2.50;;
19923;SDS011;10124;53.068;18.224;2023-03-26T14:43:51;4.18;;;1.38;;
19923;SDS011;10124;53.068;18.224;2023-03-26T14:52:48;1.77;;;1.17;;
19923;SDS011;10124;53.068;18.224;2023-03-26T15:26:38;5.83;;;2.77;;
19923;SDS011;10124;53.068;18.224;2023-03-26T15:29:27;3.87;;;1.70;;
19923;SDS011;10124;53.068;18.224;2023-03-26T15:32:25;5.63;;;2.73;;
19923;SDS011;10124;53.068;18.224;2023-03-26T15:35:22;3.10;;;1.77;;
19923;SDS011;10124;53.068;18.224;2023-03-26T15:41:20;16.87;;;7.13;;
19923;SDS011;10124;53.068;18.224;2023-03-26T15:44:08;14.83;;;6.17;;
19923;SDS011;10124;53.068;18.224;2023-03-26T15:55:16;31.93;;;17.60;;
19923;SDS011;10124;53.068;18.224;2023-03-26T15:58:04;49.57;;;29.20;;
19923;SDS011;10124;53.068;18.224;2023-03-26T16:01:19;57.33;;;31.60;;
19923;SDS011;10124;53.068;18.224;2023-03-26T16:12:25;21.37;;;9.57;;
19923;SDS011;10124;53.068;18.224;2023-03-26T16:15:22;18.17;;;9.27;;
19923;SDS011;10124;53.068;18.224;2023-03-26T16:20:45;17.83;;;9.17;;
19923;SDS011;10124;53.068;18.224;2023-03-26T16:28:34;39.70;;;18.17;;
19923;SDS011;10124;53.068;18.224;2023-03-26T16:31:04;28.83;;;12.60;;
19923;SDS011;10124;53.068;18.224;2023-03-26T16:46:04;39.47;;;16.37;;
19923;SDS011;10124;53.068;18.224;2023-03-26T16:48:56;56.10;;;27.43;;
19923;SDS011;10124;53.068;18.224;2023-03-26T16:54:49;28.07;;;16.67;;
19923;SDS011;10124;53.068;18.224;2023-03-26T16:57:42;26.33;;;14.27;;
19923;SDS011;10124;53.068;18.224;2023-03-26T17:00:28;17.00;;;10.03;;
19923;SDS011;10124;53.068;18.224;2023-03-26T17:19:53;19.07;;;10.60;;
19923;SDS011;10124;53.068;18.224;2023-03-26T17:22:49;12.37;;;7.00;;
19923;SDS011;10124;53.068;18.224;2023-03-26T17:28:44;13.37;;;7.57;;
19923;SDS011;10124;53.068;18.224;2023-03-26T17:31:38;15.73;;;8.93;;
19923;SDS011;10124;53.068;18.224;2023-03-26T17:42:30;35.30;;;21.57;;
19923;SDS011;10124;53.068;18.224;2023-03-26T17:45:34;26.60;;;16.27;;
19923;SDS011;10124;53.068;18.224;2023-03-26T17:47:57;18.23;;;11.03;;
19923;SDS011;10124;53.068;18.224;2023-03-26T17:53:14;23.23;;;11.80;;
19923;SDS011;10124;53.068;18.224;2023-03-26T17:55:46;23.80;;;12.73;;
19923;SDS011;10124;53.068;18.224;2023-03-26T17:58:22;31.10;;;13.47;;
19923;SDS011;10124;53.068;18.224;2023-03-26T18:03:56;16.90;;;10.30;;
19923;SDS011;10124;53.068;18.224;2023-03-26T18:17:55;17.13;;;9.80;;
19923;SDS011;10124;53.068;18.224;2023-03-26T18:20:45;12.77;;;6.80;;
19923;SDS011;10124;53.068;18.224;2023-03-26T18:26:08;12.57;;;6.20;;
19923;SDS011;10124;53.068;18.224;2023-03-26T18:28:50;9.70;;;5.63;;
19923;SDS011;10124;53.068;18.224;2023-03-26T18:31:22;14.33;;;6.93;;
19923;SDS011;10124;53.068;18.224;2023-03-26T18:33:54;14.07;;;7.40;;
19923;SDS011;10124;53.068;18.224;2023-03-26T18:36:26;12.13;;;6.97;;
19923;SDS011;10124;53.068;18.224;2023-03-26T18:38:57;10.90;;;6.90;;
19923;SDS011;10124;53.068;18.224;2023-03-26T18:41:28;8.57;;;6.00;;
19923;SDS011;10124;53.068;18.224;2023-03-26T18:44:03;7.43;;;5.10;;
19923;SDS011;10124;53.068;18.224;2023-03-26T18:46:35;7.53;;;4.50;;
19923;SDS011;10124;53.068;18.224;2023-03-26T18:49:04;8.30;;;4.60;;
19923;SDS011;10124;53.068;18.224;2023-03-26T18:51:33;6.97;;;4.87;;
19923;SDS011;10124;53.068;18.224;2023-03-26T18:54:14;8.37;;;5.70;;
19923;SDS011;10124;53.068;18.224;2023-03-26T18:56:47;7.47;;;4.90;;
19923;SDS011;10124;53.068;18.224;2023-03-26T19:01:47;8.00;;;5.20;;
19923;SDS011;10124;53.068;18.224;2023-03-26T19:04:15;8.40;;;5.43;;
19923;SDS011;10124;53.068;18.224;2023-03-26T19:06:44;10.90;;;6.00;;
19923;SDS011;10124;53.068;18.224;2023-03-26T19:09:14;9.37;;;5.93;;
19923;SDS011;10124;53.068;18.224;2023-03-26T19:14:49;12.43;;;7.80;;
19923;SDS011;10124;53.068;18.224;2023-03-26T19:17:46;27.23;;;14.90;;
19923;SDS011;10124;53.068;18.224;2023-03-26T19:20:23;33.30;;;16.93;;
19923;SDS011;10124;53.068;18.224;2023-03-26T19:22:54;69.77;;;34.13;;
19923;SDS011;10124;53.068;18.224;2023-03-26T19:25:25;69.40;;;35.50;;
19923;SDS011;10124;53.068;18.224;2023-03-26T19:27:57;66.27;;;31.67;;
19923;SDS011;10124;53.068;18.224;2023-03-26T19:30:29;71.00;;;37.17;;
19923;SDS011;10124;53.068;18.224;2023-03-26T19:33:02;70.63;;;36.93;;
19923;SDS011;10124;53.068;18.224;2023-03-26T19:35:39;69.07;;;36.77;;
19923;SDS011;10124;53.068;18.224;2023-03-26T19:38:28;76.40;;;40.10;;
19923;SDS011;10124;53.068;18.224;2023-03-26T19:41:04;73.53;;;38.67;;
19923;SDS011;10124;53.068;18.224;2023-03-26T19:43:32;78.67;;;39.43;;
19923;SDS011;10124;53.068;18.224;2023-03-26T19:46:00;65.00;;;37.60;;
19923;SDS011;10124;53.068;18.224;2023-03-26T19:48:32;36.47;;;20.50;;
19923;SDS011;10124;53.068;18.224;2023-03-26T19:51:23;22.47;;;11.13;;
19923;SDS011;10124;53.068;18.224;2023-03-26T19:54:01;17.40;;;10.17;;
19923;SDS011;10124;53.068;18.224;2023-03-26T19:56:37;21.37;;;12.03;;
19923;SDS011;10124;53.068;18.224;2023-03-26T19:59:07;23.03;;;15.33;;
19923;SDS011;10124;53.068;18.224;2023-03-26T20:01:34;40.33;;;23.20;;
19923;SDS011;10124;53.068;18.224;2023-03-26T20:04:03;44.77;;;22.10;;
19923;SDS011;10124;53.068;18.224;2023-03-26T20:06:32;31.60;;;18.67;;
19923;SDS011;10124;53.068;18.224;2023-03-26T20:09:11;35.57;;;21.23;;
19923;SDS011;10124;53.068;18.224;2023-03-26T20:11:41;31.67;;;18.43;;
19923;SDS011;10124;53.068;18.224;2023-03-26T20:14:11;33.40;;;20.00;;
19923;SDS011;10124;53.068;18.224;2023-03-26T20:16:42;50.47;;;24.20;;
19923;SDS011;10124;53.068;18.224;2023-03-26T20:19:12;645.63;;;247.10;;
19923;SDS011;10124;53.068;18.224;2023-03-26T20:21:41;330.40;;;111.03;;
19923;SDS011;10124;53.068;18.224;2023-03-26T20:24:11;211.30;;;75.60;;
19923;SDS011;10124;53.068;18.224;2023-03-26T20:26:44;155.40;;;58.63;;
19923;SDS011;10124;53.068;18.224;2023-03-26T20:29:13;95.50;;;38.40;;
19923;SDS011;10124;53.068;18.224;2023-03-26T20:31:41;75.87;;;32.30;;
19923;SDS011;10124;53.068;18.224;2023-03-26T20:34:15;67.33;;;30.07;;
19923;SDS011;10124;53.068;18.224;2023-03-26T20:36:45;74.23;;;32.47;;
19923;SDS011;10124;53.068;18.224;2023-03-26T20:39:13;73.60;;;30.37;;
19923;SDS011;10124;53.068;18.224;2023-03-26T20:41:44;64.30;;;30.20;;
19923;SDS011;10124;53.068;18.224;2023-03-26T20:44:16;71.17;;;31.90;;
19923;SDS011;10124;53.068;18.224;2023-03-26T20:46:45;58.43;;;27.10;;
19923;SDS011;10124;53.068;18.224;2023-03-26T20:49:15;44.87;;;23.33;;
19923;SDS011;10124;53.068;18.224;2023-03-26T20:51:44;46.77;;;25.40;;
19923;SDS011;10124;53.068;18.224;2023-03-26T20:54:21;57.90;;;29.97;;
19923;SDS011;10124;53.068;18.224;2023-03-26T20:56:54;52.77;;;28.93;;
19923;SDS011;10124;53.068;18.224;2023-03-26T20:59:22;61.13;;;33.97;;
19923;SDS011;10124;53.068;18.224;2023-03-26T21:01:53;64.10;;;36.53;;
19923;SDS011;10124;53.068;18.224;2023-03-26T21:04:25;63.27;;;36.67;;
19923;SDS011;10124;53.068;18.224;2023-03-26T21:06:53;63.37;;;35.17;;
19923;SDS011;10124;53.068;18.224;2023-03-26T21:09:37;61.83;;;34.67;;
19923;SDS011;10124;53.068;18.224;2023-03-26T21:12:14;62.80;;;35.00;;
19923;SDS011;10124;53.068;18.224;2023-03-26T21:15:04;60.23;;;32.90;;
19923;SDS011;10124;53.068;18.224;2023-03-26T21:17:46;59.03;;;32.20;;